Marseilles, IL (61341)

3:56 PM CST on January 19, 2017 (GMT -0600)
South Ottawa IL | | Change Station
Active Advisory: Flood Warning, Flood Advisory

Elev 607 ft 41.33 °N, 88.83 °W | Updated 28 seconds ago

Rain
Rain
38.7 °F
Feels Like 39 °F
N
0.0
Wind Variable Wind from WSW

Today
High -- | Low -- °F
--% Chance of Precip.
Yesterday
High -- | Low -- °F
Precip. -- in
Pressure 29.85 in
Visibility 2.5 miles
Clouds Scattered Clouds 6500 ft
Overcast 8500 ft
Windchill 39 °F
Dew Point 37 °F
Humidity 93%
Rainfall 0.14 in
Snow Depth Not available.
7:16 AM 4:55 PM
Waning Gibbous, 50% visible
METAR KC09 192135Z AUTO 09004KT 2 1/2SM RA SCT065 OVC085 04/03 A2985 RMK AO2 P0002 T00430033
Pressure 29.85 in
Visibility 2.5 miles
Clouds Scattered Clouds 6500 ft
Overcast 8500 ft
Windchill 39 °F
Dew Point 37 °F
Humidity 93%
Rainfall 0.14 in
Snow Depth Not available.
7:16 AM 4:55 PM
Waning Gibbous, 50% visible
METAR KC09 192135Z AUTO 09004KT 2 1/2SM RA SCT065 OVC085 04/03 A2985 RMK AO2 P0002 T00430033

Get Your Daily Forecast Email!

Thanks for signing up!

Be on the lookout for a verification email in your inbox.

You'll start receiving the daily forecast at 8 AM.

×

10-Day Weather Forecast

Almanac

Astronomy

Jan. 19, 2017 Rise Set
Actual Time
Civil Twilight
Nautical Twilight
Astronomical Twilight
Moon
Length of Visible Light
Length of Day
Tomorrow will be .
, % of the Moon is Illuminated

Today's Extremes

State Highs State Lows

Community

WunderPhotos

Upload Photos

1,962,540 photos uploaded!

WunderBlog® & News

Nearby

Air Quality

  Air Quality AQ Index Pollutant
Not available.

Snow Depth

Station Depth Elevation

Earthquake Activity

City Distance Mag. Time & Date
Minimum magnitude displayed is 2.5.

Coastal Water Temperatures

Place Temperature

Stations

Nearby Weather Stations

Station Location Temp. Windchill Dew Point Humidity Wind Precip. Elev Updated Type
                   

Watches & Warnings

Flood Warning
Issued: 11:08 AM CST Jan. 19, 2017 – National Weather Service

The Flood Warning continues for
the Illinois River at La Salle.
* Until Sunday afternoon.
* At 1045 am Thursday the stage was 20.1 feet.
* Flood stage is 20.0 feet.
* Minor flooding is occurring and minor flooding is forecast.
* Forecast... the river will continue to rise near 20.3 feet by this
afternoon. The river will fall below flood stage by Sunday
afternoon.
* Impact... at 20.0 feet... agricultural areas in La Salle, Spring
Valley, and Peru lowlands are flooded.


Lat... Lon 4137 8896 4135 8929 4126 8930 4128 8896


Acs



Flood Advisory
Issued: 11:18 AM CST Jan. 19, 2017 – National Weather Service

The Flood Advisory continues for
the Illinois River at Ottawa
* until Monday afternoon.
* At 1030 am Thursday the stage was 461.0 feet.
* Action stage is 461.0 feet.
* Flood stage is 463.0 feet.
* Forecast... the river will rise to near 461.7 feet by Saturday
afternoon.


Lat... Lon 4135 8868 4137 8896 4128 8897 4127 8867


Acs